createdAt,value
2024-05-09T00:02:21.827Z,13.50
2024-05-09T00:05:13.465Z,17.50
2024-05-09T00:08:05.381Z,11.10
2024-05-09T00:10:56.775Z,9.40
2024-05-09T00:13:48.298Z,13.00
2024-05-09T00:16:38.979Z,9.50
2024-05-09T00:19:30.045Z,16.30
2024-05-09T00:22:21.818Z,17.80
2024-05-09T00:25:12.828Z,22.70
2024-05-09T00:28:04.242Z,21.80
2024-05-09T00:30:55.560Z,27.10
2024-05-09T00:33:46.430Z,26.20
2024-05-09T00:36:37.879Z,13.00
2024-05-09T00:39:29.200Z,12.30
2024-05-09T00:42:20.003Z,11.80
2024-05-09T00:45:11.009Z,16.00
2024-05-09T00:48:04.991Z,27.70
2024-05-09T00:50:57.728Z,28.40
2024-05-09T00:53:49.167Z,23.10
2024-05-09T00:56:40.839Z,17.60
2024-05-09T00:59:32.380Z,14.50
2024-05-09T01:02:23.831Z,13.10
2024-05-09T01:05:15.401Z,14.90
2024-05-09T01:08:07.492Z,20.90
2024-05-09T01:10:58.213Z,20.00
2024-05-09T01:13:49.407Z,19.50
2024-05-09T01:16:40.289Z,18.20
2024-05-09T01:19:31.531Z,18.10
2024-05-09T01:22:22.656Z,24.70
2024-05-09T01:25:14.037Z,13.00
2024-05-09T01:28:06.166Z,13.80
2024-05-09T01:30:56.565Z,12.30
2024-05-09T01:33:48.045Z,24.30
2024-05-09T01:36:39.501Z,13.00
2024-05-09T01:39:30.407Z,13.00
2024-05-09T01:42:22.030Z,13.20
2024-05-09T01:45:13.041Z,12.30
2024-05-09T01:48:04.830Z,25.20
2024-05-09T01:50:56.008Z,18.30
2024-05-09T01:53:47.635Z,10.30
2024-05-09T01:56:38.494Z,11.00
2024-05-09T01:59:29.695Z,8.80
2024-05-09T02:02:20.622Z,7.40
2024-05-09T02:05:11.997Z,7.30
2024-05-09T02:08:03.276Z,14.40
2024-05-09T02:10:54.454Z,9.30
2024-05-09T02:13:45.629Z,6.30
2024-05-09T02:16:36.595Z,9.30
2024-05-09T02:19:27.880Z,5.50
2024-05-09T02:22:18.815Z,12.60
2024-05-09T02:25:09.414Z,11.10
2024-05-09T02:28:00.739Z,8.20
2024-05-09T02:30:52.457Z,10.10
2024-05-09T02:33:43.855Z,12.30
2024-05-09T02:36:35.092Z,19.00
2024-05-09T02:39:26.517Z,7.30
2024-05-09T02:42:17.308Z,9.40
2024-05-09T02:45:08.515Z,8.30
2024-05-09T02:48:00.215Z,8.80
2024-05-09T02:50:52.126Z,5.30
2024-05-09T02:53:43.045Z,8.20
2024-05-09T02:56:34.255Z,6.90
2024-05-09T02:59:25.034Z,7.90
2024-05-09T03:02:16.215Z,5.90
2024-05-09T03:05:08.081Z,9.70
2024-05-09T03:07:59.456Z,6.90
2024-05-09T03:10:50.989Z,11.20
2024-05-09T03:13:41.805Z,12.10
2024-05-09T03:16:38.107Z,16.70
2024-05-09T03:19:28.764Z,13.80
2024-05-09T03:22:20.024Z,12.60
2024-05-09T03:25:11.245Z,14.00
2024-05-09T03:28:02.568Z,16.40
2024-05-09T03:30:53.374Z,10.70
2024-05-09T03:33:44.332Z,10.20
2024-05-09T03:36:35.995Z,10.00
2024-05-09T03:39:26.688Z,11.00
2024-05-09T03:42:17.800Z,10.60
2024-05-09T03:45:09.222Z,11.20
2024-05-09T03:48:00.256Z,14.60
2024-05-09T03:50:51.209Z,11.50
2024-05-09T03:53:41.944Z,13.70
2024-05-09T03:56:32.952Z,12.30
2024-05-09T03:59:23.993Z,9.80
2024-05-09T04:02:15.265Z,8.40
2024-05-09T04:05:06.195Z,11.00
2024-05-09T04:07:57.563Z,9.40
2024-05-09T04:10:48.669Z,11.90
2024-05-09T04:13:39.716Z,11.50
2024-05-09T04:16:31.136Z,8.30
2024-05-09T04:19:22.705Z,9.30
2024-05-09T04:22:14.375Z,13.90
2024-05-09T04:25:05.921Z,11.00
2024-05-09T04:27:57.007Z,10.20
2024-05-09T04:30:48.332Z,15.20
2024-05-09T04:33:38.853Z,14.80
2024-05-09T04:36:30.039Z,10.70
2024-05-09T04:39:21.346Z,14.00
2024-05-09T04:42:12.255Z,10.00
2024-05-09T04:45:04.086Z,11.40
2024-05-09T04:47:55.022Z,10.20
2024-05-09T04:50:46.168Z,10.30
2024-05-09T04:53:37.410Z,14.00
2024-05-09T04:56:28.548Z,13.10
2024-05-09T04:59:19.936Z,10.30
2024-05-09T05:02:11.559Z,15.50
2024-05-09T05:05:03.084Z,8.90
2024-05-09T05:07:54.833Z,10.30
2024-05-09T05:10:45.817Z,9.50
2024-05-09T05:13:40.132Z,9.50
2024-05-09T05:16:32.452Z,12.40
2024-05-09T05:19:23.541Z,8.40
2024-05-09T05:22:14.877Z,11.30
2024-05-09T05:25:06.811Z,6.60
2024-05-09T05:27:57.607Z,8.20
2024-05-09T05:30:48.214Z,6.40
2024-05-09T05:33:39.536Z,8.70
2024-05-09T05:36:31.046Z,7.60
2024-05-09T05:39:21.800Z,6.20
2024-05-09T05:42:12.861Z,3.70
2024-05-09T05:45:06.105Z,9.70
2024-05-09T05:47:58.555Z,6.00
2024-05-09T05:50:49.867Z,5.80
2024-05-09T05:53:41.458Z,7.10
2024-05-09T05:56:32.453Z,8.60
2024-05-09T05:59:24.310Z,6.50
2024-05-09T06:02:15.793Z,7.30
2024-05-09T06:05:07.370Z,8.90
2024-05-09T06:07:58.007Z,6.20
2024-05-09T06:10:49.236Z,6.40
2024-05-09T06:13:44.085Z,7.50
2024-05-09T06:16:35.459Z,11.90
2024-05-09T06:19:26.584Z,8.10
2024-05-09T06:22:17.939Z,6.60
2024-05-09T06:25:08.624Z,18.10
2024-05-09T06:28:00.780Z,7.10
2024-05-09T06:30:52.290Z,8.80
2024-05-09T06:33:43.848Z,12.70
2024-05-09T06:36:36.154Z,9.80
2024-05-09T06:39:27.052Z,9.60
2024-05-09T06:42:18.282Z,6.80
2024-05-09T06:45:08.862Z,7.40
2024-05-09T06:48:01.035Z,25.40
2024-05-09T06:50:51.832Z,7.90
2024-05-09T06:53:42.653Z,6.10
2024-05-09T06:56:33.445Z,16.80
2024-05-09T06:59:24.523Z,8.80
2024-05-09T07:02:15.602Z,7.20
2024-05-09T07:05:07.102Z,12.90
2024-05-09T07:07:58.286Z,6.50
2024-05-09T07:10:49.018Z,8.00
2024-05-09T07:13:40.791Z,10.40
2024-05-09T07:16:32.007Z,7.40
2024-05-09T07:19:23.018Z,10.90
2024-05-09T07:22:14.135Z,7.70
2024-05-09T07:25:05.644Z,26.40
2024-05-09T07:27:56.654Z,8.40
2024-05-09T07:30:47.970Z,10.80
2024-05-09T07:33:39.690Z,8.00
2024-05-09T07:36:31.109Z,9.10
2024-05-09T07:39:22.940Z,6.70
2024-05-09T07:42:14.167Z,9.00
2024-05-09T07:45:20.934Z,11.80
2024-05-09T07:54:09.120Z,8.50
2024-05-09T07:57:00.284Z,8.80
2024-05-09T07:59:51.239Z,13.80
2024-05-09T08:02:42.489Z,11.00
2024-05-09T08:05:33.453Z,8.00
2024-05-09T08:08:24.286Z,8.70
2024-05-09T08:11:15.541Z,8.50
2024-05-09T08:14:06.594Z,8.20
2024-05-09T08:16:57.604Z,9.70
2024-05-09T08:19:49.044Z,10.60
2024-05-09T08:22:40.226Z,9.60
2024-05-09T08:25:31.132Z,8.10
2024-05-09T08:28:23.005Z,9.30
2024-05-09T08:31:14.718Z,8.20
2024-05-09T08:34:07.171Z,9.00
2024-05-09T08:37:03.723Z,8.10
2024-05-09T08:40:01.362Z,6.40
2024-05-09T08:42:53.280Z,9.80
2024-05-09T08:45:45.360Z,8.50
2024-05-09T08:48:36.666Z,6.70
2024-05-09T08:51:28.324Z,8.50
2024-05-09T08:54:21.422Z,6.40
2024-05-09T08:57:12.394Z,6.60
2024-05-09T09:00:09.915Z,7.00
2024-05-09T09:03:04.421Z,7.80
2024-05-09T09:06:01.862Z,8.00
2024-05-09T09:08:53.556Z,5.10
2024-05-09T09:11:44.448Z,9.80
2024-05-09T09:14:35.647Z,7.10
2024-05-09T09:17:27.380Z,7.80
2024-05-09T09:20:26.275Z,6.20
2024-05-09T09:23:27.981Z,6.10
2024-05-09T09:26:19.241Z,5.60
2024-05-09T09:29:10.056Z,8.60
2024-05-09T09:32:04.834Z,6.70
2024-05-09T09:34:56.886Z,8.30
2024-05-09T09:37:48.016Z,8.00
2024-05-09T09:40:46.768Z,6.10
2024-05-09T09:43:41.582Z,6.20
2024-05-09T09:46:32.940Z,7.00
2024-05-09T09:49:24.700Z,5.80
2024-05-09T09:52:16.247Z,7.80
2024-05-09T09:55:09.327Z,6.70
2024-05-09T09:58:00.024Z,6.20
2024-05-09T10:00:51.198Z,7.90
2024-05-09T10:03:43.117Z,4.40
2024-05-09T10:06:35.627Z,5.10
2024-05-09T10:09:26.382Z,5.00
2024-05-09T10:12:17.225Z,4.60
2024-05-09T10:15:09.707Z,5.60
2024-05-09T10:18:06.779Z,4.30
2024-05-09T10:20:57.945Z,4.70
2024-05-09T10:24:13.236Z,8.30
2024-05-09T10:30:29.764Z,6.90
2024-05-09T10:33:36.324Z,4.60
2024-05-09T10:36:27.524Z,4.80
2024-05-09T10:39:20.514Z,10.90
2024-05-09T10:42:12.058Z,5.60
2024-05-09T10:45:03.227Z,5.40
2024-05-09T10:47:54.892Z,4.20
2024-05-09T10:50:47.138Z,12.00
2024-05-09T10:53:41.918Z,6.80
2024-05-09T10:56:32.932Z,6.50
2024-05-09T10:59:24.259Z,7.30
2024-05-09T11:13:00.205Z,8.00
2024-05-09T11:15:51.099Z,5.30
2024-05-09T11:18:43.494Z,7.50
2024-05-09T11:21:34.615Z,5.00
2024-05-09T11:24:25.548Z,12.00
2024-05-09T11:27:16.234Z,3.70
2024-05-09T11:33:14.273Z,7.40
2024-05-09T11:38:56.672Z,10.70
2024-05-09T11:41:48.197Z,6.20
2024-05-09T11:44:39.506Z,4.60
2024-05-09T11:47:30.873Z,6.00
2024-05-09T11:50:27.309Z,3.80
2024-05-09T11:53:24.307Z,4.30
2024-05-09T11:56:15.646Z,5.40
2024-05-09T11:59:06.428Z,7.50
2024-05-09T12:01:57.079Z,9.90
2024-05-09T12:04:48.897Z,6.60
2024-05-09T12:07:40.566Z,3.80
2024-05-09T12:10:34.184Z,4.00
2024-05-09T12:13:26.752Z,5.00
2024-05-09T12:16:18.362Z,4.50
2024-05-09T12:19:09.620Z,4.20
2024-05-09T12:22:00.907Z,5.90
2024-05-09T12:24:52.079Z,4.90
2024-05-09T12:27:43.210Z,3.80
2024-05-09T12:30:38.343Z,4.60
2024-05-09T12:33:31.456Z,3.50
2024-05-09T12:36:22.938Z,13.40
2024-05-09T12:39:13.847Z,6.10
2024-05-09T12:42:05.264Z,4.80
2024-05-09T12:44:56.387Z,3.80
2024-05-09T12:47:47.337Z,6.00
2024-05-09T12:50:41.515Z,4.80
2024-05-09T12:53:32.886Z,6.40
2024-05-09T12:56:23.692Z,6.90
2024-05-09T12:59:14.701Z,5.40
2024-05-09T13:02:06.081Z,4.50
2024-05-09T13:04:57.627Z,5.20
2024-05-09T13:07:49.271Z,5.70
2024-05-09T13:10:39.968Z,5.30
2024-05-09T13:13:30.979Z,5.40
2024-05-09T13:16:22.120Z,7.90
2024-05-09T13:19:13.101Z,15.00
2024-05-09T13:22:04.411Z,11.20
2024-05-09T13:24:55.260Z,24.20
2024-05-09T13:27:46.136Z,14.70
2024-05-09T13:30:40.809Z,21.50
2024-05-09T13:33:33.609Z,9.00
2024-05-09T13:36:24.872Z,6.20
2024-05-09T13:39:15.909Z,16.30
2024-05-09T13:42:06.935Z,4.40
2024-05-09T13:44:57.792Z,5.80
2024-05-09T13:47:48.533Z,5.80
2024-05-09T13:50:40.250Z,6.20
2024-05-09T13:53:31.244Z,8.30
2024-05-09T13:56:22.338Z,8.10
2024-05-09T13:59:13.360Z,5.00
2024-05-09T14:02:04.998Z,3.70
2024-05-09T14:04:55.938Z,9.60
2024-05-09T14:07:46.885Z,4.50
2024-05-09T14:10:44.053Z,8.20
2024-05-09T14:13:35.357Z,4.30
2024-05-09T14:16:26.615Z,6.70
2024-05-09T14:19:18.422Z,4.80
2024-05-09T14:22:10.052Z,4.40
2024-05-09T14:25:00.881Z,5.90
2024-05-09T14:27:52.206Z,5.70
2024-05-09T14:30:44.135Z,5.40
2024-05-09T14:33:35.044Z,3.70
2024-05-09T14:36:26.397Z,5.20
2024-05-09T14:39:17.607Z,4.00
2024-05-09T14:42:08.532Z,5.20
2024-05-09T14:44:59.116Z,4.50
2024-05-09T14:47:50.304Z,4.60
2024-05-09T14:50:42.199Z,4.10
2024-05-09T14:53:33.366Z,6.00
2024-05-09T14:56:24.488Z,7.40
2024-05-09T14:59:15.689Z,3.10
2024-05-09T15:02:07.178Z,5.30
2024-05-09T15:04:58.530Z,5.30
2024-05-09T15:07:49.945Z,3.10
2024-05-09T15:10:41.107Z,5.40
2024-05-09T15:13:32.275Z,5.10
2024-05-09T15:16:24.050Z,4.50
2024-05-09T15:19:15.446Z,5.50
2024-05-09T15:22:06.885Z,2.70
2024-05-09T15:24:58.439Z,3.70
2024-05-09T15:27:50.185Z,3.80
2024-05-09T15:30:45.201Z,3.60
2024-05-09T15:33:37.714Z,5.00
2024-05-09T15:36:28.636Z,3.80
2024-05-09T15:39:19.448Z,3.10
2024-05-09T15:42:10.872Z,4.50
2024-05-09T15:45:02.470Z,4.00
2024-05-09T15:47:53.614Z,3.10
2024-05-09T15:50:45.089Z,4.40
2024-05-09T15:53:36.535Z,4.70
2024-05-09T15:56:28.268Z,3.70
2024-05-09T15:59:19.154Z,3.40
2024-05-09T16:02:11.451Z,4.50
2024-05-09T16:05:03.029Z,3.40
2024-05-09T16:07:54.147Z,4.60
2024-05-09T16:10:46.216Z,3.10
2024-05-09T16:13:38.391Z,3.80
2024-05-09T16:16:29.712Z,4.60
2024-05-09T16:19:20.453Z,3.90
2024-05-09T16:22:11.811Z,2.50
2024-05-09T16:25:03.610Z,2.70
2024-05-09T16:27:54.434Z,3.50
2024-05-09T16:30:45.331Z,2.80
2024-05-09T16:33:36.406Z,2.20
2024-05-09T16:36:27.300Z,3.00
2024-05-09T16:39:18.390Z,6.20
2024-05-09T16:42:09.500Z,2.60
2024-05-09T16:45:00.816Z,3.40
2024-05-09T16:47:51.672Z,2.40
2024-05-09T16:50:42.895Z,5.60
2024-05-09T16:53:33.438Z,2.50
2024-05-09T16:56:24.852Z,3.10
2024-05-09T16:59:16.172Z,3.20
2024-05-09T17:02:07.404Z,4.40
2024-05-09T17:04:59.428Z,2.90
2024-05-09T17:07:50.935Z,3.10
2024-05-09T17:10:41.449Z,4.60
2024-05-09T17:13:32.782Z,4.00
2024-05-09T17:16:24.042Z,3.30
2024-05-09T17:19:15.190Z,3.60
2024-05-09T17:22:07.105Z,3.60
2024-05-09T17:24:58.461Z,2.20
2024-05-09T17:27:50.031Z,2.00
2024-05-09T17:30:42.717Z,2.20
2024-05-09T17:33:34.255Z,1.90
2024-05-09T17:36:25.728Z,5.40
2024-05-09T17:39:16.864Z,3.30
2024-05-09T17:42:07.765Z,2.90
2024-05-09T17:44:59.187Z,1.70
2024-05-09T17:47:50.241Z,3.10
2024-05-09T17:50:41.897Z,2.70
2024-05-09T17:53:33.312Z,2.20
2024-05-09T17:56:24.229Z,2.50
2024-05-09T17:59:15.351Z,5.90
2024-05-09T18:02:06.922Z,4.80
2024-05-09T18:04:57.995Z,4.60
2024-05-09T18:07:49.074Z,11.20
2024-05-09T18:10:41.288Z,15.20
2024-05-09T18:13:32.676Z,16.20
2024-05-09T18:16:24.067Z,10.10
2024-05-09T18:19:15.701Z,12.60
2024-05-09T18:22:06.380Z,11.00
2024-05-09T18:24:57.157Z,6.50
2024-05-09T18:27:48.252Z,7.60
2024-05-09T18:30:40.511Z,7.30
2024-05-09T18:33:32.120Z,7.10
2024-05-09T18:36:23.057Z,9.10
2024-05-09T18:39:15.409Z,8.90
2024-05-09T18:42:06.817Z,5.20
2024-05-09T18:44:57.516Z,5.00
2024-05-09T18:47:48.820Z,7.50
2024-05-09T18:50:41.548Z,15.80
2024-05-09T18:53:33.109Z,15.90
2024-05-09T18:56:23.923Z,12.00
2024-05-09T18:59:15.137Z,12.20
2024-05-09T19:02:06.616Z,11.40
2024-05-09T19:04:58.048Z,7.70
2024-05-09T19:07:49.567Z,7.90
2024-05-09T19:10:40.971Z,7.40
2024-05-09T19:13:32.106Z,10.00
2024-05-09T19:16:23.369Z,8.20
2024-05-09T19:19:15.175Z,9.00
2024-05-09T19:22:09.006Z,6.60
2024-05-09T19:25:00.592Z,11.00
2024-05-09T19:27:51.845Z,24.00
2024-05-09T19:30:43.312Z,28.50
2024-05-09T19:33:34.717Z,15.50
2024-05-09T19:36:26.315Z,11.30
2024-05-09T19:39:17.838Z,14.20
2024-05-09T19:42:08.358Z,12.80
2024-05-09T19:44:59.434Z,10.60
2024-05-09T19:47:51.166Z,8.40
2024-05-09T19:50:44.513Z,20.80
2024-05-09T19:53:36.155Z,12.00
2024-05-09T19:56:27.366Z,12.20
2024-05-09T19:59:18.473Z,9.30
2024-05-09T20:02:09.417Z,10.00
2024-05-09T20:05:02.251Z,10.50
2024-05-09T20:07:53.752Z,15.70
2024-05-09T20:10:44.921Z,10.40
2024-05-09T20:13:36.873Z,13.00
2024-05-09T20:16:28.139Z,19.60
2024-05-09T20:19:18.573Z,11.70
2024-05-09T20:22:10.015Z,13.60
2024-05-09T20:25:01.551Z,22.20
2024-05-09T20:27:52.384Z,17.10
2024-05-09T20:30:43.702Z,21.10
2024-05-09T20:33:34.860Z,12.70
2024-05-09T20:36:25.783Z,14.10
2024-05-09T20:39:19.745Z,12.20
2024-05-09T20:42:10.568Z,15.40
2024-05-09T20:45:01.374Z,13.30
2024-05-09T20:47:52.731Z,21.30
2024-05-09T20:50:44.131Z,13.90
2024-05-09T20:53:35.115Z,16.90
2024-05-09T20:56:25.809Z,16.50
2024-05-09T20:59:16.716Z,12.10
2024-05-09T21:02:07.752Z,21.90
2024-05-09T21:04:59.156Z,14.90
2024-05-09T21:07:50.661Z,14.40
2024-05-09T21:10:41.697Z,14.70
2024-05-09T21:13:32.887Z,12.10
2024-05-09T21:16:24.008Z,19.70
2024-05-09T21:19:14.939Z,10.90
2024-05-09T21:22:05.884Z,8.70
2024-05-09T21:24:57.145Z,7.50
2024-05-09T21:27:48.564Z,15.90
2024-05-09T21:30:42.444Z,10.10
2024-05-09T21:33:34.424Z,10.50
2024-05-09T21:36:25.571Z,12.60
2024-05-09T21:39:16.673Z,8.40
2024-05-09T21:42:07.491Z,10.50
2024-05-09T21:44:58.891Z,8.10
2024-05-09T21:47:49.659Z,15.50
2024-05-09T21:50:42.354Z,14.10
2024-05-09T21:53:34.516Z,11.30
2024-05-09T21:56:26.820Z,10.40
2024-05-09T21:59:17.628Z,12.30
2024-05-09T22:02:09.226Z,12.70
2024-05-09T22:05:00.763Z,13.90
2024-05-09T22:07:52.185Z,16.90
2024-05-09T22:10:43.214Z,11.70
2024-05-09T22:13:34.112Z,15.00
2024-05-09T22:16:25.429Z,12.20
2024-05-09T22:19:16.478Z,13.50
2024-05-09T22:22:07.471Z,9.50
2024-05-09T22:24:58.728Z,9.30
2024-05-09T22:27:49.582Z,10.10
2024-05-09T22:30:41.246Z,7.80
2024-05-09T22:33:32.636Z,9.20
2024-05-09T22:36:24.725Z,13.60
2024-05-09T22:39:15.632Z,19.10
2024-05-09T22:42:07.263Z,11.70
2024-05-09T22:44:58.467Z,8.00
2024-05-09T22:47:49.459Z,10.80
2024-05-09T22:50:41.170Z,12.30
2024-05-09T22:53:31.714Z,11.70
2024-05-09T22:56:28.655Z,9.30
2024-05-09T22:59:19.558Z,9.10
2024-05-09T23:02:11.395Z,11.20
2024-05-09T23:05:02.867Z,12.30
2024-05-09T23:07:53.910Z,11.30
2024-05-09T23:10:45.158Z,11.30
2024-05-09T23:13:35.989Z,12.90
2024-05-09T23:16:27.381Z,13.40
2024-05-09T23:19:18.385Z,13.80
2024-05-09T23:22:09.950Z,10.80
2024-05-09T23:25:00.951Z,10.40
2024-05-09T23:27:52.102Z,11.70
2024-05-09T23:30:43.421Z,9.40
2024-05-09T23:33:34.573Z,11.60
2024-05-09T23:36:27.579Z,9.20
2024-05-09T23:39:18.895Z,16.60
2024-05-09T23:42:10.111Z,12.60
2024-05-09T23:45:01.014Z,11.80
2024-05-09T23:47:52.951Z,16.40
2024-05-09T23:50:43.953Z,16.80
2024-05-09T23:53:34.757Z,13.80
2024-05-09T23:56:25.873Z,12.70
2024-05-09T23:59:17.001Z,19.50
